Time;durP1;ratioP1;P1;durP2;ratioP2;P2;SDS_P1;SDS_P2;PMS_P1;PMS_P2;Temp;Humidity;BMP_temperature;BMP_pressure;BME280_temperature;BME280_humidity;BME280_pressure;Samples;Min_cycle;Max_cycle;Signal;HPM_P1;HPM_P2
2023/03/10 00:00:48;;;;;;;27.95;15.95;;;0.80;99.90;;;;;;5054617;28;20059;-43
2023/03/10 00:03:14;;;;;;;30.63;16.25;;;0.60;99.90;;;;;;5055280;28;20147;-43
2023/03/10 00:05:40;;;;;;;25.85;15.18;;;0.60;99.90;;;;;;5055217;28;20053;-45
2023/03/10 00:08:06;;;;;;;28.92;15.73;;;0.80;99.90;;;;;;5054801;28;20094;-42
2023/03/10 00:10:31;;;;;;;27.10;15.82;;;0.80;99.90;;;;;;5054500;28;20124;-42
2023/03/10 00:12:57;;;;;;;28.80;16.80;;;0.90;99.90;;;;;;5064887;28;20044;-44
2023/03/10 00:15:23;;;;;;;30.13;17.48;;;0.80;99.90;;;;;;5073447;28;20119;-45
2023/03/10 00:17:49;;;;;;;26.55;14.45;;;0.80;99.90;;;;;;5073896;28;20070;-45
2023/03/10 00:20:15;;;;;;;27.15;16.33;;;0.70;99.90;;;;;;5075129;28;20131;-42
2023/03/10 00:22:41;;;;;;;30.67;16.92;;;0.90;99.90;;;;;;5075934;28;20118;-44
2023/03/10 00:25:08;;;;;;;30.38;16.70;;;0.70;99.90;;;;;;5075285;28;20383;-45
2023/03/10 00:27:34;;;;;;;27.33;16.25;;;0.70;99.90;;;;;;5075567;28;20056;-45
2023/03/10 00:30:00;;;;;;;31.02;15.77;;;0.90;99.90;;;;;;5053033;28;20063;-44
2023/03/10 00:32:26;;;;;;;32.45;16.88;;;0.70;99.90;;;;;;5055262;28;20517;-42
2023/03/10 00:34:51;;;;;;;29.30;16.30;;;0.90;99.90;;;;;;5054860;28;20355;-42
2023/03/10 00:37:17;;;;;;;27.40;16.55;;;0.70;99.90;;;;;;5046097;28;20056;-42
2023/03/10 00:39:43;;;;;;;32.45;16.70;;;0.60;99.90;;;;;;5047727;28;20036;-44
2023/03/10 00:42:10;;;;;;;30.10;17.88;;;0.60;99.90;;;;;;5054947;28;20155;-44
2023/03/10 00:44:35;;;;;;;31.45;17.15;;;0.80;99.90;;;;;;5070844;28;20105;-43
2023/03/10 00:47:01;;;;;;;29.38;17.30;;;0.90;99.90;;;;;;5075697;28;20432;-45
2023/03/10 00:49:27;;;;;;;26.95;15.65;;;0.80;99.90;;;;;;5074761;28;20040;-44
2023/03/10 00:51:52;;;;;;;33.10;17.95;;;0.80;99.90;;;;;;5074491;28;20062;-45
2023/03/10 00:54:18;;;;;;;31.80;16.85;;;0.90;99.90;;;;;;5053133;28;20122;-46
2023/03/10 00:56:44;;;;;;;30.23;17.00;;;0.60;99.90;;;;;;5063631;28;20324;-47
2023/03/10 00:59:11;;;;;;;33.05;18.80;;;0.60;99.90;;;;;;5068689;28;20100;-50
2023/03/10 01:01:39;;;;;;;29.15;18.10;;;0.70;99.90;;;;;;5075076;28;20433;-50
2023/03/10 01:04:11;;;;;;;34.30;18.60;;;0.80;99.90;;;;;;5074925;28;20063;-47
2023/03/10 01:06:37;;;;;;;32.50;17.55;;;0.90;99.90;;;;;;5075675;28;20051;-48
2023/03/10 01:09:03;;;;;;;35.90;18.45;;;0.80;99.90;;;;;;5055164;28;20048;-46
2023/03/10 01:11:30;;;;;;;29.63;17.35;;;0.70;99.90;;;;;;5052504;28;20076;-51
2023/03/10 01:13:58;;;;;;;30.52;17.33;;;0.60;99.90;;;;;;5055727;28;20104;-48
2023/03/10 01:16:25;;;;;;;28.95;17.10;;;0.90;99.90;;;;;;5073944;28;20678;-48
2023/03/10 01:18:51;;;;;;;27.40;17.17;;;0.80;99.90;;;;;;5073479;28;20052;-46
2023/03/10 01:21:27;;;;;;;34.03;18.42;;;0.70;99.90;;;;;;5073304;28;20044;-43
2023/03/10 01:23:53;;;;;;;30.80;17.65;;;0.80;99.90;;;;;;5059962;28;20059;-43
2023/03/10 01:26:19;;;;;;;29.10;16.45;;;0.80;99.90;;;;;;5074589;28;20048;-46
2023/03/10 01:28:46;;;;;;;30.05;16.85;;;0.70;99.90;;;;;;5072519;28;20047;-47
2023/03/10 01:31:12;;;;;;;31.95;18.88;;;1.00;99.90;;;;;;5073816;28;20561;-45
2023/03/10 01:33:39;;;;;;;29.95;18.02;;;1.00;99.90;;;;;;5074098;28;20047;-45
2023/03/10 01:36:15;;;;;;;32.58;18.23;;;0.70;99.90;;;;;;5072786;28;20079;-46
2023/03/10 01:38:41;;;;;;;32.92;18.45;;;0.70;99.90;;;;;;5037146;28;20049;-46
2023/03/10 01:41:08;;;;;;;29.38;16.35;;;0.70;99.90;;;;;;5054784;28;20427;-46
2023/03/10 01:43:42;;;;;;;34.40;18.70;;;0.90;99.90;;;;;;5074244;28;20123;-45
2023/03/10 01:46:22;;;;;;;31.45;17.65;;;1.00;99.90;;;;;;5073708;28;20211;-53
2023/03/10 01:48:48;;;;;;;32.70;17.38;;;0.70;99.90;;;;;;5073533;28;20062;-49
2023/03/10 01:51:14;;;;;;;30.63;18.17;;;0.90;99.90;;;;;;5073624;28;20059;-52
2023/03/10 01:53:40;;;;;;;31.02;17.90;;;0.70;99.90;;;;;;5052816;28;20152;-54
2023/03/10 01:56:06;;;;;;;32.85;17.85;;;0.70;99.90;;;;;;5047516;28;20056;-54
2023/03/10 01:58:40;;;;;;;30.75;17.92;;;1.00;99.90;;;;;;5052829;28;20070;-55
2023/03/10 02:01:08;;;;;;;30.98;18.13;;;0.70;99.90;;;;;;5053976;28;20118;-52
2023/03/10 02:03:50;;;;;;;29.08;17.27;;;0.80;99.90;;;;;;5052169;28;20110;-52
2023/03/10 02:06:18;;;;;;;33.65;17.73;;;0.90;99.90;;;;;;5053526;28;20384;-52
2023/03/10 02:08:47;;;;;;;35.38;19.30;;;0.70;99.90;;;;;;5051998;28;20330;-54
2023/03/10 02:11:14;;;;;;;33.47;18.60;;;0.80;99.90;;;;;;5052908;28;20049;-52
2023/03/10 02:13:40;;;;;;;33.67;18.48;;;0.70;99.90;;;;;;5053057;28;20048;-55
2023/03/10 02:16:06;;;;;;;36.30;19.15;;;1.00;99.90;;;;;;5054180;28;20045;-53
2023/03/10 02:18:32;;;;;;;39.65;20.65;;;0.70;99.90;;;;;;5067843;28;20191;-54
2023/03/10 02:21:03;;;;;;;39.70;20.83;;;0.90;99.90;;;;;;5073104;28;20372;-52
2023/03/10 02:23:41;;;;;;;44.13;23.38;;;0.70;99.90;;;;;;5072783;28;20289;-55
2023/03/10 02:26:44;;;;;;;43.30;23.85;;;1.00;99.90;;;;;;5061846;28;20044;-55
2023/03/10 02:29:19;;;;;;;44.38;24.15;;;1.00;99.90;;;;;;5052880;28;20135;-53
2023/03/10 02:31:46;;;;;;;45.40;25.02;;;0.90;99.90;;;;;;5053368;28;20101;-55
2023/03/10 02:34:12;;;;;;;49.05;25.88;;;0.90;99.90;;;;;;5055686;28;20088;-52
2023/03/10 02:36:38;;;;;;;49.70;24.65;;;1.00;99.90;;;;;;5052893;28;20044;-54
2023/03/10 02:39:04;;;;;;;44.35;23.90;;;0.80;99.90;;;;;;5044769;28;20937;-53
2023/03/10 02:41:33;;;;;;;54.88;25.33;;;0.80;99.90;;;;;;5056837;28;20048;-54
2023/03/10 02:44:03;;;;;;;50.33;24.05;;;0.80;99.90;;;;;;5066938;28;20056;-54
2023/03/10 02:46:29;;;;;;;43.33;24.15;;;0.90;99.90;;;;;;5077342;28;20127;-52
2023/03/10 02:48:59;;;;;;;39.97;22.35;;;0.90;99.90;;;;;;5077193;28;20047;-54
2023/03/10 02:51:28;;;;;;;44.50;24.35;;;0.90;99.90;;;;;;5071758;28;20044;-53
2023/03/10 02:53:54;;;;;;;40.08;22.35;;;0.70;99.90;;;;;;5051570;28;20052;-53
2023/03/10 02:56:20;;;;;;;37.28;20.83;;;0.90;99.90;;;;;;5052013;28;20089;-53
2023/03/10 02:58:45;;;;;;;35.08;20.70;;;0.80;99.90;;;;;;5056778;28;20072;-50
2023/03/10 03:01:11;;;;;;;37.60;21.35;;;0.90;99.90;;;;;;5052791;28;20082;-53
2023/03/10 03:03:37;;;;;;;33.55;18.20;;;0.80;99.90;;;;;;5055754;28;20048;-55
2023/03/10 03:06:04;;;;;;;40.22;19.80;;;0.70;99.90;;;;;;5074156;28;20048;-55
2023/03/10 03:08:29;;;;;;;34.65;19.27;;;0.60;99.90;;;;;;5064215;28;20499;-55
2023/03/10 03:10:55;;;;;;;34.03;18.48;;;0.90;99.90;;;;;;5074605;28;20132;-53
2023/03/10 03:13:21;;;;;;;36.58;19.17;;;0.80;99.90;;;;;;5076755;28;20047;-53
2023/03/10 03:15:47;;;;;;;35.28;18.10;;;0.90;99.90;;;;;;5075552;28;20130;-54
2023/03/10 03:18:13;;;;;;;34.22;17.95;;;0.70;99.90;;;;;;5076748;28;20066;-55
2023/03/10 03:20:39;;;;;;;35.35;16.88;;;0.70;99.90;;;;;;5062097;28;20505;-57
2023/03/10 03:23:06;;;;;;;34.83;17.20;;;0.80;99.90;;;;;;5077040;28;20071;-53
2023/03/10 03:25:35;;;;;;;29.20;14.82;;;0.60;99.90;;;;;;5069875;28;20320;-50
2023/03/10 03:28:01;;;;;;;33.60;16.00;;;0.80;99.90;;;;;;5069833;28;20062;-53
2023/03/10 03:30:27;;;;;;;29.33;15.52;;;0.60;99.90;;;;;;5067299;28;20049;-49
2023/03/10 03:32:53;;;;;;;32.83;16.02;;;0.90;99.90;;;;;;5069420;28;20083;-55
2023/03/10 03:35:23;;;;;;;33.95;16.48;;;0.60;99.90;;;;;;5075745;28;20050;-54
2023/03/10 03:37:50;;;;;;;35.13;15.73;;;0.70;99.90;;;;;;5061593;28;20129;-56
2023/03/10 03:40:16;;;;;;;34.35;15.55;;;0.60;99.90;;;;;;5051814;28;20058;-51
2023/03/10 03:42:44;;;;;;;29.65;15.63;;;0.60;99.90;;;;;;5056736;28;20048;-51
2023/03/10 03:45:12;;;;;;;26.90;14.57;;;0.60;99.90;;;;;;5074687;28;20864;-53
2023/03/10 03:47:38;;;;;;;33.45;16.27;;;0.60;99.90;;;;;;5075557;28;20055;-55
2023/03/10 03:50:04;;;;;;;29.13;14.43;;;0.80;99.90;;;;;;5063919;28;20047;-50
2023/03/10 03:52:31;;;;;;;34.22;16.05;;;0.70;99.90;;;;;;5065376;28;20121;-55
2023/03/10 03:54:57;;;;;;;34.92;16.80;;;0.60;99.90;;;;;;5054360;28;20470;-51
2023/03/10 03:57:22;;;;;;;36.05;16.60;;;0.50;99.90;;;;;;5053120;28;20469;-53
2023/03/10 03:59:48;;;;;;;32.88;16.27;;;0.50;99.90;;;;;;5075387;28;20545;-51
2023/03/10 04:02:14;;;;;;;32.83;16.17;;;0.80;99.90;;;;;;5075251;28;20056;-52
2023/03/10 04:04:39;;;;;;;38.22;17.25;;;0.50;99.90;;;;;;5075452;28;20070;-55
2023/03/10 04:07:05;;;;;;;36.35;16.35;;;0.50;99.90;;;;;;5070958;28;20102;-53
2023/03/10 04:09:31;;;;;;;41.40;18.58;;;0.50;99.90;;;;;;5067014;28;20402;-51
2023/03/10 04:11:57;;;;;;;35.42;16.88;;;0.80;99.90;;;;;;5070634;28;20858;-50
2023/03/10 04:14:22;;;;;;;42.20;18.67;;;0.60;99.90;;;;;;5057102;28;20048;-52
2023/03/10 04:16:48;;;;;;;37.63;17.02;;;0.70;99.90;;;;;;5049811;28;20044;-53
2023/03/10 04:19:13;;;;;;;34.30;17.05;;;0.80;99.90;;;;;;5055199;28;20044;-53
2023/03/10 04:21:39;;;;;;;37.83;18.15;;;0.50;99.90;;;;;;5055630;28;20899;-53
2023/03/10 04:24:05;;;;;;;34.38;17.00;;;0.50;99.90;;;;;;5055407;28;20343;-55
2023/03/10 04:26:31;;;;;;;38.33;18.08;;;0.50;99.90;;;;;;5055491;28;20036;-53
2023/03/10 04:28:58;;;;;;;36.15;18.08;;;0.80;99.90;;;;;;5054566;28;20473;-51
2023/03/10 04:31:24;;;;;;;38.97;17.85;;;0.80;99.90;;;;;;5053105;28;20055;-54
2023/03/10 04:33:50;;;;;;;37.05;17.42;;;0.80;99.90;;;;;;5054421;28;20059;-56
2023/03/10 04:36:17;;;;;;;44.40;18.95;;;0.80;99.90;;;;;;5053807;28;20131;-56
2023/03/10 04:38:43;;;;;;;42.90;19.55;;;0.50;99.90;;;;;;5039321;28;20047;-57
2023/03/10 04:41:09;;;;;;;43.75;19.38;;;0.70;99.90;;;;;;5056174;28;20048;-56
2023/03/10 04:43:36;;;;;;;52.50;20.92;;;0.70;99.90;;;;;;5074951;28;20054;-55
2023/03/10 04:46:02;;;;;;;49.63;19.45;;;0.50;99.90;;;;;;5073908;28;20444;-53
2023/03/10 04:48:29;;;;;;;49.38;21.10;;;0.40;99.90;;;;;;5074047;28;20237;-53
2023/03/10 04:51:03;;;;;;;44.90;19.27;;;0.60;99.90;;;;;;5074534;28;20044;-56
2023/03/10 04:53:31;;;;;;;49.70;20.15;;;0.70;99.90;;;;;;5066076;28;20131;-56
2023/03/10 04:55:58;;;;;;;41.00;19.77;;;0.50;99.90;;;;;;5066903;28;20054;-52
2023/03/10 04:58:23;;;;;;;54.33;21.00;;;0.70;99.90;;;;;;5056304;28;20144;-52
2023/03/10 05:00:49;;;;;;;45.97;21.45;;;0.50;99.90;;;;;;5069681;28;20597;-55
2023/03/10 05:03:15;;;;;;;51.05;22.30;;;0.40;99.90;;;;;;5037067;28;20118;-55
2023/03/10 05:05:41;;;;;;;50.17;21.70;;;0.40;99.90;;;;;;5052448;28;20656;-53
2023/03/10 05:08:07;;;;;;;58.47;21.23;;;0.70;99.90;;;;;;5054185;28;20082;-54
2023/03/10 05:10:33;;;;;;;52.35;21.98;;;0.70;99.90;;;;;;5058334;28;20082;-51
2023/03/10 05:12:59;;;;;;;63.28;22.92;;;0.40;99.90;;;;;;5074312;28;20059;-51
2023/03/10 05:15:24;;;;;;;50.78;22.55;;;0.70;99.90;;;;;;5073785;28;20816;-52
2023/03/10 05:17:50;;;;;;;56.55;22.17;;;0.40;99.90;;;;;;5074536;28;20465;-53
2023/03/10 05:20:16;;;;;;;57.47;21.98;;;0.40;99.90;;;;;;5072054;28;20127;-51
2023/03/10 05:22:42;;;;;;;48.28;22.27;;;0.40;99.90;;;;;;5075176;28;20048;-51
2023/03/10 05:25:10;;;;;;;61.10;24.17;;;0.70;99.90;;;;;;5074128;28;20535;-52
2023/03/10 05:27:37;;;;;;;55.80;24.00;;;0.40;99.90;;;;;;5075133;28;20062;-50
2023/03/10 05:30:08;;;;;;;53.10;22.75;;;0.30;99.90;;;;;;5074183;28;20051;-52
2023/03/10 05:32:34;;;;;;;50.72;21.75;;;0.40;99.90;;;;;;5074747;28;20104;-53
2023/03/10 05:35:01;;;;;;;50.67;22.70;;;0.60;99.90;;;;;;5073853;28;20511;-53
2023/03/10 05:37:26;;;;;;;49.88;20.85;;;0.40;99.90;;;;;;5050800;28;20293;-52
2023/03/10 05:39:52;;;;;;;54.00;22.63;;;0.40;99.90;;;;;;5049238;28;20219;-53
2023/03/10 05:42:18;;;;;;;46.75;20.83;;;0.60;99.90;;;;;;5053811;28;20115;-51
2023/03/10 05:44:44;;;;;;;46.20;20.23;;;0.70;99.90;;;;;;5070761;28;20112;-49
2023/03/10 05:47:09;;;;;;;50.50;22.27;;;0.60;99.90;;;;;;5074999;28;20498;-50
2023/03/10 05:49:35;;;;;;;44.28;21.10;;;0.40;99.90;;;;;;5060244;28;20338;-50
2023/03/10 05:52:01;;;;;;;49.58;20.70;;;0.70;99.90;;;;;;5071256;28;20052;-53
2023/03/10 05:54:27;;;;;;;45.92;21.98;;;0.40;99.90;;;;;;5050290;28;20466;-49
2023/03/10 05:56:53;;;;;;;47.75;21.88;;;0.60;99.90;;;;;;5050242;28;20127;-50
2023/03/10 05:59:19;;;;;;;49.38;22.23;;;0.60;99.90;;;;;;5053411;28;20045;-53
2023/03/10 06:01:44;;;;;;;49.03;22.98;;;0.50;99.90;;;;;;5065223;28;20048;-52
2023/03/10 06:04:10;;;;;;;42.88;21.58;;;0.50;99.90;;;;;;5071867;28;20052;-51
2023/03/10 06:06:36;;;;;;;53.42;23.48;;;0.60;99.90;;;;;;5074340;28;20054;-47
2023/03/10 06:09:02;;;;;;;50.40;23.83;;;0.60;99.90;;;;;;5071450;28;20391;-50
2023/03/10 06:11:28;;;;;;;51.42;24.63;;;0.60;99.90;;;;;;5072768;28;20121;-53
2023/03/10 06:13:53;;;;;;;58.90;25.92;;;0.50;99.90;;;;;;5073190;28;20441;-49
2023/03/10 06:16:19;;;;;;;62.65;26.27;;;0.80;99.90;;;;;;5073488;28;20474;-49
2023/03/10 06:18:45;;;;;;;70.53;26.23;;;0.80;99.90;;;;;;5071748;28;20623;-51
2023/03/10 06:21:13;;;;;;;70.78;28.88;;;0.80;99.90;;;;;;5072914;28;20040;-51
2023/03/10 06:23:40;;;;;;;72.78;28.20;;;0.60;99.90;;;;;;5072985;28;20105;-53
2023/03/10 06:26:12;;;;;;;62.92;27.17;;;0.80;99.90;;;;;;5074146;28;20078;-51
2023/03/10 06:28:40;;;;;;;70.03;29.00;;;0.70;99.90;;;;;;5073247;28;20410;-51
2023/03/10 06:31:10;;;;;;;71.60;28.05;;;0.80;99.90;;;;;;5074004;28;20059;-50
2023/03/10 06:33:37;;;;;;;70.05;28.60;;;0.60;99.90;;;;;;5074097;28;20086;-47
2023/03/10 06:36:03;;;;;;;154.57;34.08;;;0.60;99.90;;;;;;5073540;28;20465;-52
2023/03/10 06:38:29;;;;;;;71.45;28.55;;;0.80;99.90;;;;;;5036500;28;20041;-50
2023/03/10 06:40:55;;;;;;;73.15;28.00;;;0.80;99.90;;;;;;5053177;28;20380;-51
2023/03/10 06:43:21;;;;;;;70.25;29.30;;;0.70;99.90;;;;;;5071700;28;20066;-47
2023/03/10 06:45:47;;;;;;;106.78;30.85;;;0.60;99.90;;;;;;5073119;28;20048;-49
2023/03/10 06:48:13;;;;;;;204.95;36.35;;;0.60;99.90;;;;;;5058520;28;20578;-51
2023/03/10 06:50:41;;;;;;;74.57;30.67;;;0.90;99.90;;;;;;5073017;28;20421;-50
2023/03/10 06:53:10;;;;;;;78.15;27.63;;;0.70;99.90;;;;;;5058249;28;20049;-51
2023/03/10 06:55:37;;;;;;;76.28;29.58;;;0.60;99.90;;;;;;5058363;28;20040;-50
2023/03/10 06:58:03;;;;;;;64.97;28.77;;;0.90;99.90;;;;;;5052424;28;20052;-52
2023/03/10 07:00:29;;;;;;;72.88;28.42;;;0.80;99.90;;;;;;5052158;28;20316;-53
2023/03/10 07:02:54;;;;;;;72.07;29.25;;;0.80;99.90;;;;;;5051949;28;20041;-52
2023/03/10 07:05:21;;;;;;;71.80;28.30;;;0.80;99.90;;;;;;5052301;28;20053;-53
2023/03/10 07:07:49;;;;;;;68.07;28.58;;;0.90;99.90;;;;;;5053174;28;20115;-47
2023/03/10 07:10:16;;;;;;;60.95;26.88;;;0.70;99.90;;;;;;5053721;28;20147;-52
2023/03/10 07:12:42;;;;;;;57.17;26.48;;;0.90;99.90;;;;;;5053958;28;20041;-50
2023/03/10 07:15:09;;;;;;;70.07;26.30;;;0.80;99.90;;;;;;5054891;28;20045;-54
2023/03/10 07:17:34;;;;;;;61.97;25.63;;;0.90;99.90;;;;;;5053357;28;20044;-51
2023/03/10 07:20:00;;;;;;;53.95;25.08;;;0.70;99.90;;;;;;5057470;28;20110;-52
2023/03/10 07:22:26;;;;;;;51.38;25.35;;;0.90;99.90;;;;;;5056679;28;20329;-50
2023/03/10 07:24:55;;;;;;;64.97;25.05;;;0.70;99.90;;;;;;5057173;28;20398;-51
2023/03/10 07:27:22;;;;;;;53.63;25.20;;;0.70;99.90;;;;;;5064786;28;20166;-51
2023/03/10 07:29:47;;;;;;;55.88;25.15;;;0.90;99.90;;;;;;5073641;28;20055;-48
2023/03/10 07:32:15;;;;;;;53.75;24.05;;;0.70;99.90;;;;;;5065248;28;20044;-52
2023/03/10 07:34:41;;;;;;;46.83;22.65;;;0.70;99.90;;;;;;5062122;28;20048;-49
2023/03/10 07:37:08;;;;;;;47.88;23.10;;;0.70;99.90;;;;;;5056114;28;20492;-54
2023/03/10 07:39:34;;;;;;;47.53;23.67;;;0.70;99.90;;;;;;5052327;28;20056;-52
2023/03/10 07:41:59;;;;;;;43.85;21.83;;;1.00;99.90;;;;;;5054972;28;20875;-50
2023/03/10 07:44:25;;;;;;;40.95;21.60;;;0.90;99.90;;;;;;5056445;28;20068;-53
2023/03/10 07:46:51;;;;;;;47.72;22.33;;;0.80;99.90;;;;;;5056835;28;20036;-52
2023/03/10 07:49:16;;;;;;;48.88;21.55;;;0.90;99.90;;;;;;5055079;28;20399;-52
2023/03/10 07:51:42;;;;;;;46.80;20.40;;;1.00;99.90;;;;;;5053783;28;20500;-51
2023/03/10 07:54:08;;;;;;;46.08;21.42;;;0.90;99.90;;;;;;5051630;28;20046;-54
2023/03/10 07:56:34;;;;;;;37.58;19.35;;;0.90;99.90;;;;;;5053411;28;20045;-52
2023/03/10 07:59:00;;;;;;;52.42;23.25;;;0.90;99.90;;;;;;5053329;28;20499;-50
2023/03/10 08:01:25;;;;;;;44.10;19.95;;;1.20;99.90;;;;;;5053129;28;20055;-52
2023/03/10 08:03:51;;;;;;;42.70;20.88;;;1.10;99.90;;;;;;5053893;28;20191;-54
2023/03/10 08:06:20;;;;;;;39.75;19.77;;;1.20;99.90;;;;;;5043555;28;20048;-52
2023/03/10 08:08:46;;;;;;;40.58;19.35;;;1.20;99.90;;;;;;5053108;28;20139;-55
2023/03/10 08:11:12;;;;;;;43.08;19.52;;;1.20;99.90;;;;;;5066990;28;20375;-52
2023/03/10 08:13:38;;;;;;;37.40;18.90;;;1.20;99.90;;;;;;5049382;28;20087;-54
2023/03/10 08:16:04;;;;;;;40.20;19.85;;;1.00;99.90;;;;;;5074682;28;20048;-52
2023/03/10 08:18:30;;;;;;;39.67;20.27;;;1.00;99.90;;;;;;5050826;28;20048;-54
2023/03/10 08:20:57;;;;;;;37.45;19.95;;;1.20;99.90;;;;;;5051523;28;20631;-53
2023/03/10 08:23:23;;;;;;;40.45;19.77;;;1.10;99.90;;;;;;5047697;28;20458;-54
2023/03/10 08:25:49;;;;;;;43.55;21.42;;;1.10;99.90;;;;;;5042809;28;20389;-55
2023/03/10 08:28:15;;;;;;;40.78;19.85;;;1.20;99.90;;;;;;5040344;28;20049;-53
2023/03/10 08:30:41;;;;;;;40.05;20.60;;;1.20;99.90;;;;;;5049645;28;20048;-53
2023/03/10 08:33:07;;;;;;;41.75;20.70;;;1.30;99.90;;;;;;5044355;28;20162;-55
2023/03/10 08:35:36;;;;;;;38.25;20.00;;;1.30;99.90;;;;;;5044413;28;20084;-52
2023/03/10 08:38:03;;;;;;;43.42;20.88;;;1.30;99.90;;;;;;5035818;28;20530;-53
2023/03/10 08:40:30;;;;;;;40.05;19.65;;;1.10;99.90;;;;;;5036498;28;20041;-53
2023/03/10 08:42:56;;;;;;;44.72;20.63;;;1.20;99.90;;;;;;5045890;28;20564;-53
2023/03/10 08:45:22;;;;;;;39.28;18.95;;;1.40;99.90;;;;;;5061492;28;20412;-54
2023/03/10 08:47:47;;;;;;;44.17;19.88;;;1.30;99.90;;;;;;5072811;28;20475;-52
2023/03/10 08:50:13;;;;;;;30.50;17.17;;;1.20;99.90;;;;;;5075110;28;20048;-54
2023/03/10 08:52:39;;;;;;;41.70;21.15;;;1.40;99.90;;;;;;5062719;28;20075;-52
2023/03/10 08:55:07;;;;;;;38.92;19.27;;;1.40;99.90;;;;;;5053186;28;20044;-54
2023/03/10 08:57:32;;;;;;;35.05;19.02;;;1.50;99.90;;;;;;5050231;28;20044;-53
2023/03/10 08:59:58;;;;;;;33.50;18.15;;;1.40;99.90;;;;;;5053369;28;20110;-52
2023/03/10 09:02:25;;;;;;;42.83;21.17;;;1.30;99.90;;;;;;5053757;28;20411;-51
2023/03/10 09:04:51;;;;;;;37.42;20.55;;;1.50;99.90;;;;;;5054086;28;20060;-54
2023/03/10 09:07:17;;;;;;;38.30;21.80;;;1.30;99.90;;;;;;5069857;28;20071;-54
2023/03/10 09:09:43;;;;;;;38.80;20.45;;;1.50;99.90;;;;;;5074596;28;20052;-52
2023/03/10 09:12:10;;;;;;;35.35;19.63;;;1.50;99.90;;;;;;5042704;28;20062;-54
2023/03/10 09:14:36;;;;;;;43.33;21.13;;;1.40;99.90;;;;;;5065126;28;20386;-54
2023/03/10 09:17:03;;;;;;;38.33;20.83;;;1.40;99.90;;;;;;5057438;28;20052;-53
2023/03/10 09:19:29;;;;;;;36.83;19.92;;;1.50;99.90;;;;;;5073772;28;20159;-54
2023/03/10 09:21:56;;;;;;;39.20;21.90;;;1.20;99.90;;;;;;5073790;28;20132;-54
2023/03/10 09:24:23;;;;;;;47.97;22.95;;;1.30;99.90;;;;;;5063028;28;20051;-54
2023/03/10 09:26:49;;;;;;;38.40;20.88;;;1.40;99.90;;;;;;5071446;28;20052;-54
2023/03/10 09:29:15;;;;;;;42.10;21.95;;;1.30;99.90;;;;;;5073962;28;20147;-54
2023/03/10 09:31:42;;;;;;;40.92;23.80;;;1.30;99.90;;;;;;5064820;28;20052;-55
2023/03/10 09:34:10;;;;;;;38.08;21.65;;;1.30;99.90;;;;;;5035646;28;20057;-54
2023/03/10 09:36:37;;;;;;;42.00;23.25;;;1.30;99.90;;;;;;5037890;28;20163;-53
2023/03/10 09:39:04;;;;;;;41.55;21.52;;;1.40;99.90;;;;;;5033900;28;20053;-54
2023/03/10 09:41:57;;;;;;;42.05;22.73;;;1.50;99.90;;;;;;5036082;28;20131;-53
2023/03/10 09:44:42;;;;;;;40.15;21.35;;;1.30;99.90;;;;;;5048067;28;20132;-54
2023/03/10 09:47:41;;;;;;;43.60;22.42;;;1.40;99.90;;;;;;5049756;28;20165;-53
2023/03/10 09:50:26;;;;;;;44.83;21.88;;;1.30;99.90;;;;;;5041647;28;20056;-55
2023/03/10 09:53:17;;;;;;;43.60;21.83;;;1.30;99.90;;;;;;5042203;28;20052;-53
2023/03/10 09:55:44;;;;;;;39.47;21.58;;;1.40;99.90;;;;;;5059533;28;20047;-52
2023/03/10 09:58:29;;;;;;;40.15;22.98;;;1.30;99.90;;;;;;5071836;28;20268;-53
2023/03/10 10:00:55;;;;;;;37.05;21.40;;;1.20;99.90;;;;;;5056365;28;20049;-51
2023/03/10 10:03:26;;;;;;;41.03;21.98;;;1.30;99.90;;;;;;5033073;28;20061;-55
2023/03/10 10:05:54;;;;;;;40.55;23.02;;;1.30;99.90;;;;;;5073959;28;20170;-55
2023/03/10 10:08:42;;;;;;;43.58;22.77;;;1.20;99.90;;;;;;5032858;28;20551;-52
2023/03/10 10:11:14;;;;;;;40.08;21.67;;;1.20;99.90;;;;;;5047008;28;20760;-53
2023/03/10 10:13:40;;;;;;;46.58;23.80;;;1.40;99.90;;;;;;5051596;28;20048;-53
2023/03/10 10:16:09;;;;;;;44.80;22.33;;;1.40;99.90;;;;;;5053495;28;20042;-48
2023/03/10 10:18:35;;;;;;;40.55;23.35;;;1.20;99.90;;;;;;5053071;28;20550;-49
2023/03/10 10:21:08;;;;;;;37.92;22.50;;;1.20;99.90;;;;;;5053305;28;20410;-49
2023/03/10 10:23:42;;;;;;;40.72;22.20;;;1.20;99.90;;;;;;5051730;28;20080;-52
2023/03/10 10:26:14;;;;;;;44.58;22.58;;;1.40;99.90;;;;;;5053221;28;20373;-52
2023/03/10 10:28:48;;;;;;;37.08;20.77;;;1.20;99.90;;;;;;5052529;28;20059;-51
2023/03/10 10:31:16;;;;;;;35.95;22.02;;;1.20;99.90;;;;;;5052644;28;20094;-50
2023/03/10 10:33:54;;;;;;;36.22;20.48;;;1.30;99.90;;;;;;5053322;28;20060;-48
2023/03/10 10:36:23;;;;;;;38.97;21.65;;;1.30;99.90;;;;;;5051946;28;20496;-50
2023/03/10 10:38:51;;;;;;;42.20;23.73;;;1.20;99.90;;;;;;5047510;28;20052;-53
2023/03/10 10:41:20;;;;;;;46.08;24.83;;;1.30;99.90;;;;;;5052629;28;20044;-51
2023/03/10 10:43:47;;;;;;;37.28;22.30;;;1.30;99.90;;;;;;5051952;28;20056;-52
2023/03/10 10:46:14;;;;;;;41.63;21.98;;;1.10;99.90;;;;;;5053123;28;20044;-52
2023/03/10 10:48:42;;;;;;;36.63;20.88;;;1.40;99.90;;;;;;5050859;28;20060;-51
2023/03/10 10:51:29;;;;;;;41.47;22.50;;;1.50;99.90;;;;;;5055091;28;20125;-49
2023/03/10 10:53:56;;;;;;;44.50;22.48;;;1.40;99.90;;;;;;5053183;28;20051;-50
2023/03/10 10:56:27;;;;;;;42.42;23.20;;;1.50;99.90;;;;;;5054514;28;20142;-46
2023/03/10 10:59:18;;;;;;;41.08;21.17;;;1.60;99.90;;;;;;5055842;28;20048;-52
2023/03/10 11:01:53;;;;;;;50.20;25.25;;;1.40;99.90;;;;;;5057525;28;20494;-50
2023/03/10 11:04:23;;;;;;;46.00;23.15;;;1.50;99.90;;;;;;5062111;28;20058;-55
2023/03/10 11:06:49;;;;;;;46.60;22.63;;;1.50;99.90;;;;;;5074877;28;20506;-50
2023/03/10 11:09:22;;;;;;;43.25;22.67;;;1.60;99.90;;;;;;5042691;28;20044;-49
2023/03/10 11:12:00;;;;;;;41.25;22.85;;;1.60;99.90;;;;;;5048030;28;20044;-48
2023/03/10 11:14:44;;;;;;;37.83;21.08;;;1.80;99.90;;;;;;5037140;28;20048;-53
2023/03/10 11:17:48;;;;;;;37.72;21.90;;;1.70;99.90;;;;;;5038946;28;20604;-47
2023/03/10 11:20:26;;;;;;;40.47;23.60;;;1.50;99.90;;;;;;5046209;28;20140;-52
2023/03/10 11:22:54;;;;;;;39.10;20.88;;;1.50;99.90;;;;;;5036786;28;20107;-53
2023/03/10 11:25:44;;;;;;;34.55;20.35;;;1.60;99.90;;;;;;5040841;28;20394;-52
2023/03/10 11:28:32;;;;;;;40.65;21.00;;;1.50;99.90;;;;;;5035471;28;20550;-50
2023/03/10 11:31:43;;;;;;;36.47;20.30;;;1.70;99.90;;;;;;5054490;28;20479;-53
2023/03/10 11:34:29;;;;;;;36.70;21.67;;;1.60;99.90;;;;;;5051565;28;20337;-56
2023/03/10 11:37:20;;;;;;;42.88;23.38;;;1.70;99.90;;;;;;5058153;28;20057;-52
2023/03/10 11:40:07;;;;;;;41.20;22.77;;;1.60;99.90;;;;;;5053737;28;20059;-55
2023/03/10 11:42:49;;;;;;;42.17;22.77;;;1.90;99.90;;;;;;5073926;28;20471;-52
2023/03/10 11:45:45;;;;;;;37.13;20.83;;;1.70;99.90;;;;;;5056779;28;20036;-53
2023/03/10 11:48:25;;;;;;;36.63;20.33;;;1.80;99.90;;;;;;5056152;28;20044;-54
2023/03/10 11:51:00;;;;;;;37.10;20.45;;;1.80;99.90;;;;;;5073344;28;20052;-54
2023/03/10 11:53:34;;;;;;;37.58;20.90;;;1.80;99.90;;;;;;5047636;28;20048;-54
2023/03/10 11:56:01;;;;;;;38.10;21.25;;;1.90;99.90;;;;;;5068794;28;20129;-50
2023/03/10 11:58:38;;;;;;;33.47;19.73;;;1.70;99.90;;;;;;5072086;28;20052;-49
2023/03/10 12:01:06;;;;;;;35.13;19.42;;;1.80;99.90;;;;;;5072904;28;20055;-54
2023/03/10 12:03:59;;;;;;;35.88;20.10;;;1.80;99.90;;;;;;5055180;28;20415;-50
2023/03/10 12:06:52;;;;;;;34.53;20.75;;;1.70;99.90;;;;;;5061033;28;20052;-51
2023/03/10 12:09:50;;;;;;;35.00;20.60;;;1.80;99.90;;;;;;5073052;28;20067;-49
2023/03/10 12:12:22;;;;;;;34.35;19.70;;;1.80;99.90;;;;;;5075433;28;20052;-52
2023/03/10 12:14:48;;;;;;;34.60;20.00;;;1.90;99.90;;;;;;5075545;28;20067;-52
2023/03/10 12:17:16;;;;;;;37.40;20.33;;;1.60;99.90;;;;;;5069766;28;20441;-50
2023/03/10 12:20:13;;;;;;;37.35;21.58;;;1.80;99.90;;;;;;5065833;28;20087;-52
2023/03/10 12:22:42;;;;;;;33.05;20.17;;;1.70;99.90;;;;;;5046420;28;20099;-56
2023/03/10 12:25:27;;;;;;;42.50;22.00;;;1.80;99.90;;;;;;5055574;28;20520;-57
2023/03/10 12:28:12;;;;;;;38.97;23.52;;;1.50;99.90;;;;;;5053951;28;20052;-52
2023/03/10 12:31:10;;;;;;;38.70;22.75;;;1.50;99.90;;;;;;5055610;28;20510;-53
2023/03/10 12:33:36;;;;;;;40.00;24.67;;;1.50;99.90;;;;;;5041617;28;20103;-48
2023/03/10 12:36:28;;;;;;;39.38;22.83;;;1.70;99.90;;;;;;5053859;28;20044;-51
2023/03/10 12:38:58;;;;;;;45.22;25.48;;;1.50;99.90;;;;;;5020259;28;20542;-49
2023/03/10 12:41:27;;;;;;;43.95;25.83;;;1.50;99.90;;;;;;5047800;28;20064;-50
2023/03/10 12:44:19;;;;;;;45.22;27.88;;;1.50;99.90;;;;;;5051049;28;20206;-50
2023/03/10 12:46:49;;;;;;;39.30;25.38;;;1.30;99.90;;;;;;5034976;28;20048;-46